KTRK

Truckee-Tahoe Airport

Truckee, California, USA
METAR KTRK 151845Z 21009G14KT 3SM -SN SCT023 BKN041 OVC048 M03/M08 A2978
Observed Flight Rules
Feb-15 @ 18:45 UTC (24 minutes ago) Marginal Visual Flight Rules
Wind Visibility Clouds Conditions
210° at 9 knots
 Gusting to 14 knots
3 miles
  • Scattered at 2,300' AGL
  • Broken at 4,100' AGL
  • Overcast at 4,800' AGL
  • Light Snow
Temperatures Readings
Current -3°C / 27°F
Dewpoint -8°C / 18°F
Humidity 69%
Altimeter 29.78" Hg
Pressure 1008.42 hPa
Elevation 1798
METAR KTRK 151845Z 21009G14KT 3SM -SN SCT023 BKN041 OVC048 M03/M08 A2978
Observed Flight Rules
Feb-15 @ 18:45 UTC
(24 minutes ago)
MVFR
Wind Visibility
210° at 9 knots
 Gusting to 14 knots
3 miles
Clouds
  • Scattered at 2,300' AGL
  • Broken at 4,100' AGL
  • Overcast at 4,800' AGL
Conditions
  • Light Snow
Temperature Dewpoint
-3°C / 27°F -8°C / 18°F
Humidity Altimeter Pressure
69% 29.78" Hg 1008.42 hPa